Observations for FIRENZE PERETOLA, Italy (LIRQ)

LIRQ 141220Z 10008KT 9999 FEW040 16/09 Q1006
LIRQ 141150Z 10006KT 070V140 9999 FEW040 16/08 Q1006
LIRQ 141120Z VRB02KT 9999 FEW040 15/09 Q1007
LIRQ 141050Z VRB01KT 9999 FEW040 14/10 Q1008
LIRQ 141020Z VRB01KT CAVOK 12/09 Q1008  
LIRQ 140950Z VRB02KT CAVOK 09/09 Q1008  
LIRQ 140920Z VRB01KT 9000 FEW010 09/09 Q1008
LIRQ 140850Z VRB02KT 7000 FEW008 SCT050 08/08 Q1009 
LIRQ 140820Z 08001KT 2000 BR SCT003 SCT040 07/07 Q1009  
LIRQ 140750Z 23003KT 190V260 0400 R05/1400U FG BKN002 07/07 Q1008   
LIRQ 140720Z VRB01KT 0250 R05/0375N FG BKN002 06/06 Q1008   
LIRQ 140650Z 30002KT 0200 R05/0375N FG VV/// 06/06 Q1008
LIRQ 140620Z VRB02KT 0100 R05/0500N FG VV/// 06/06 Q1007
LIRQ 140550Z VRB01KT 0100 R05/0300V0550U FG VV/// 06/06 Q1007   
LIRQ 140520Z VRB01KT 0200 R05/0500N FG VV/// 06/06 Q1007
LIRQ 140450Z VRB02KT 0100 R05/0500N FG VV/// 06/06 Q1007
LIRQ 140420Z 14003KT 100V170 0100 R05/0350V0600N FG VV/// 06/06 Q1007   
LIRQ 140350Z 19002KT 0300 R05/0275V0750N FG BKN003 06/06 Q1007  
LIRQ 140320Z VRB01KT 0600 R05/1400U BCFG BKN003 06/06 Q1007 
LIRQ 140220Z VRB01KT 0300 R05/0600V0800N FG NSC 05/05 Q1007 
LIRQ 140150Z 31002KT 0300 R05/0450D FG NSC 06/06 Q1007  
LIRQ 140120Z 08001KT 8000 R05/1400D MIFG NSC 06/06 Q1007
LIRQ 140050Z VRB01KT 9999 MIFG NSC 06/06 Q1007  
LIRQ 140020Z 25001KT 8000 2000N VCFG NSC 06/06 Q1007
LIRQ 132350Z 14002KT 9999 0500E R05/0450V0750D PRFG NSC 06/06 Q1006 
LIRQ 132320Z VRB01KT 9999 0600E R05/0750N PRFG FEW005 06/06 Q1006   
LIRQ 132250Z 00000KT 9999 MIFG NSC 07/07 Q1006  
LIRQ 132220Z 30002KT 9999 R05/1000VP1500D MIFG FEW003 08/07 Q1006   
LIRQ 132150Z VRB01KT 9999 R05/0500VP1500U SCT080 06/06 Q1006
LIRQ 132120Z VRB01KT 9999 SCT080 08/08 Q1005
LIRQ 132050Z 08002KT 9999 SCT080 07/07 Q1005
LIRQ 132020Z VRB01KT 9999 FEW020 SCT080 08/08 Q1005 
LIRQ 131950Z 36001KT 9999 SCT080 09/08 Q1005
LIRQ 131920Z VRB01KT 9999 SCT080 09/08 Q1005
LIRQ 131850Z VRB01KT 9999 SCT080 10/09 Q1004
LIRQ 131820Z 09004KT 050V110 9999 SCT080 11/09 Q1004
LIRQ 131750Z 10003KT 9999 SCT080 11/09 Q1004
LIRQ 131720Z 10005KT 9999 FEW045 SCT080 11/09 Q1003 
LIRQ 131650Z 11003KT 080V140 9999 FEW045 SCT080 11/10 Q1003 
LIRQ 131620Z 05004KT 9999 FEW045 SCT080 11/10 Q1002 
LIRQ 131550Z 07003KT 9999 SCT045 12/10 Q1001
LIRQ 131520Z VRB01KT 9999 SCT035 14/10 Q1001
LIRQ 131450Z 08002KT 9999 SCT030 14/10 Q1001
LIRQ 131420Z VRB02KT 9999 SCT035 14/09 Q1001
LIRQ 131350Z 16004KT 110V180 9999 SCT040 14/09 Q1000
LIRQ 131320Z VRB02KT 9999 FEW040 14/08 Q1000
LIRQ 131250Z 01007KT 9999 FEW025CB SCT080 12/10 Q1000   
LIRQ 131220Z 29010G21KT 250V330 9999 3000N -RA VCSH SCT018CB BKN035 11/09 Q1000 RESHRA  
LIRQ 131150Z VRB02KT 9999 FEW025CB BKN040 14/11 Q0999